createdAt,value
2019-04-05T00:00:40.461Z,45.17
2019-04-05T00:03:10.700Z,44.48
2019-04-05T00:05:40.607Z,43.70
2019-04-05T00:08:10.559Z,43.88
2019-04-05T00:10:40.493Z,43.88
2019-04-05T00:13:10.495Z,43.12
2019-04-05T00:15:41.419Z,45.07
2019-04-05T00:18:11.718Z,44.70
2019-04-05T00:20:41.898Z,50.64
2019-04-05T00:23:11.837Z,47.37
2019-04-05T00:25:41.835Z,49.35
2019-04-05T00:28:11.837Z,45.55
2019-04-05T00:30:41.760Z,46.33
2019-04-05T00:33:11.659Z,44.99
2019-04-05T00:35:41.565Z,43.42
2019-04-05T00:38:11.561Z,43.11
2019-04-05T00:40:42.132Z,45.19
2019-04-05T00:43:12.616Z,47.10
2019-04-05T00:45:42.697Z,46.18
2019-04-05T00:48:13.176Z,47.33
2019-04-05T00:50:43.207Z,47.00
2019-04-05T00:53:16.242Z,46.46
2019-04-05T00:55:45.677Z,46.02
2019-04-05T00:58:16.727Z,47.13
2019-04-05T01:00:46.874Z,47.13
2019-04-05T01:03:17.012Z,46.87
2019-04-05T01:05:47.309Z,46.29
2019-04-05T01:08:17.579Z,45.47
2019-04-05T01:10:47.681Z,46.84
2019-04-05T01:13:18.024Z,47.08
2019-04-05T01:15:48.296Z,46.02
2019-04-05T01:18:18.594Z,47.81
2019-04-05T01:20:51.732Z,47.17
2019-04-05T01:23:24.109Z,46.63
2019-04-05T01:25:58.793Z,48.25
2019-04-05T01:28:29.439Z,47.40
2019-04-05T01:30:59.797Z,46.58
2019-04-05T01:33:30.168Z,45.98
2019-04-05T01:36:00.075Z,47.68
2019-04-05T01:38:30.779Z,46.36
2019-04-05T01:41:02.233Z,45.81
2019-04-05T01:43:32.194Z,46.58
2019-04-05T01:46:03.012Z,46.89
2019-04-05T01:48:32.970Z,47.26
2019-04-05T01:51:03.068Z,47.16
2019-04-05T01:53:33.291Z,45.83
2019-04-05T01:56:03.347Z,48.47
2019-04-05T01:58:33.427Z,47.73
2019-04-05T02:01:03.433Z,46.14
2019-04-05T02:03:33.603Z,45.49
2019-04-05T02:06:04.002Z,46.94
2019-04-05T02:08:34.455Z,47.46
2019-04-05T02:11:04.709Z,46.56
2019-04-05T02:13:35.088Z,46.84
2019-04-05T02:16:06.554Z,47.56
2019-04-05T02:18:36.896Z,46.94
2019-04-05T02:21:07.357Z,46.34
2019-04-05T02:23:37.337Z,46.02
2019-04-05T02:26:07.426Z,46.99
2019-04-05T02:28:37.515Z,47.93
2019-04-05T02:31:07.476Z,47.09
2019-04-05T02:33:37.397Z,47.02
2019-04-05T02:36:07.686Z,46.84
2019-04-05T02:38:37.922Z,46.93
2019-04-05T02:41:08.746Z,47.33
2019-04-05T02:43:41.062Z,46.88
2019-04-05T02:46:23.567Z,48.17
2019-04-05T02:48:49.410Z,48.25
2019-04-05T02:51:24.528Z,48.28
2019-04-05T02:53:57.566Z,49.04
2019-04-05T02:56:29.910Z,48.48
2019-04-05T02:59:01.445Z,47.66
2019-04-05T03:01:33.479Z,48.99
2019-04-05T03:04:04.975Z,48.48
2019-04-05T03:06:35.318Z,46.48
2019-04-05T03:09:06.931Z,49.03
2019-04-05T03:11:38.941Z,47.89
2019-04-05T03:14:12.978Z,47.32
2019-04-05T03:16:47.620Z,47.59
2019-04-05T03:19:24.051Z,48.74
2019-04-05T03:22:02.563Z,48.07
2019-04-05T03:24:36.390Z,48.32
2019-04-05T03:27:18.273Z,47.31
2019-04-05T03:29:48.797Z,48.21
2019-04-05T03:32:19.298Z,47.49
2019-04-05T03:34:49.776Z,48.33
2019-04-05T03:37:20.139Z,47.54
2019-04-05T03:39:50.462Z,47.76
2019-04-05T03:42:21.881Z,46.96
2019-04-05T03:47:44.866Z,48.66
2019-04-05T03:50:15.238Z,49.09
2019-04-05T03:52:46.114Z,48.81
2019-04-05T03:55:16.137Z,49.60
2019-04-05T03:57:46.438Z,49.76
2019-04-05T04:00:16.705Z,48.83
2019-04-05T04:02:46.741Z,49.36
2019-04-05T04:05:17.614Z,48.98
2019-04-05T04:07:47.851Z,47.96
2019-04-05T04:10:19.745Z,48.02
2019-04-05T04:12:50.454Z,48.57
2019-04-05T04:15:20.659Z,48.60
2019-04-05T04:17:50.889Z,48.51
2019-04-05T04:20:42.613Z,48.70
2019-04-05T04:23:14.080Z,48.94
2019-04-05T04:25:44.988Z,48.40
2019-04-05T04:28:15.780Z,47.55
2019-04-05T04:30:46.426Z,49.31
2019-04-05T04:33:17.055Z,48.45
2019-04-05T04:35:47.658Z,47.78
2019-04-05T04:38:18.777Z,47.99
2019-04-05T04:40:49.193Z,46.96
2019-04-05T04:43:19.605Z,47.05
2019-04-05T04:45:49.849Z,47.54
2019-04-05T04:48:20.008Z,47.07
2019-04-05T04:50:50.516Z,47.97
2019-04-05T04:53:20.730Z,47.14
2019-04-05T04:55:50.821Z,46.87
2019-04-05T04:58:21.384Z,48.21
2019-04-05T05:00:51.809Z,48.20
2019-04-05T05:03:22.165Z,47.63
2019-04-05T05:05:52.349Z,47.12
2019-04-05T05:08:22.750Z,46.82
2019-04-05T05:10:53.456Z,46.53
2019-04-05T05:13:24.534Z,46.28
2019-04-05T05:15:55.001Z,46.40
2019-04-05T05:18:25.335Z,46.05
2019-04-05T05:20:55.640Z,47.41
2019-04-05T05:23:25.866Z,48.41
2019-04-05T05:25:56.210Z,48.11
2019-04-05T05:28:26.283Z,45.64
2019-04-05T05:30:57.127Z,45.73
2019-04-05T05:33:27.781Z,44.85
2019-04-05T05:35:58.012Z,45.71
2019-04-05T05:38:28.344Z,44.24
2019-04-05T05:40:58.412Z,43.94
2019-04-05T05:43:28.460Z,42.89
2019-04-05T05:45:58.387Z,41.63
2019-04-05T05:48:30.851Z,42.30
2019-04-05T05:51:00.824Z,43.01
2019-04-05T05:53:31.174Z,42.68
2019-04-05T05:56:01.098Z,42.56
2019-04-05T05:58:31.011Z,41.08
2019-04-05T06:01:01.007Z,40.31
2019-04-05T06:03:30.927Z,41.90
2019-04-05T06:06:04.632Z,43.05
2019-04-05T06:08:32.529Z,43.21
2019-04-05T06:11:02.425Z,43.36
2019-04-05T06:13:33.064Z,43.84
2019-04-05T06:16:02.954Z,43.43
2019-04-05T06:18:33.095Z,43.61
2019-04-05T06:21:03.572Z,45.55
2019-04-05T06:23:34.344Z,44.82
2019-04-05T06:26:04.431Z,44.41
2019-04-05T06:28:34.367Z,45.01
2019-04-05T06:31:04.378Z,46.94
2019-04-05T06:33:35.924Z,45.44
2019-04-05T06:36:06.519Z,44.20
2019-04-05T06:38:36.409Z,44.16
2019-04-05T06:41:06.383Z,44.22
2019-04-05T06:43:36.570Z,45.50
2019-04-05T06:46:06.578Z,44.91
2019-04-05T06:48:36.923Z,45.07
2019-04-05T06:51:06.955Z,45.09
2019-04-05T06:53:36.893Z,45.16
2019-04-05T06:56:07.266Z,45.23
2019-04-05T06:58:37.186Z,46.63
2019-04-05T07:01:07.411Z,46.45
2019-04-05T07:03:37.634Z,50.47
2019-04-05T07:06:09.502Z,47.41
2019-04-05T07:08:39.397Z,46.70
2019-04-05T07:11:09.374Z,46.12
2019-04-05T07:13:39.359Z,48.52
2019-04-05T07:16:11.096Z,47.22
2019-04-05T07:18:40.934Z,46.74
2019-04-05T07:21:11.122Z,46.76
2019-04-05T07:23:41.368Z,46.95
2019-04-05T07:26:11.342Z,46.83
2019-04-05T07:28:41.238Z,46.96
2019-04-05T07:31:11.161Z,47.03
2019-04-05T07:33:41.355Z,47.62
2019-04-05T07:36:11.264Z,47.92
2019-04-05T07:38:41.222Z,48.30
2019-04-05T07:41:11.119Z,48.66
2019-04-05T07:43:41.022Z,49.27
2019-04-05T07:46:11.416Z,49.69
2019-04-05T07:48:44.951Z,49.61
2019-04-05T07:51:12.968Z,49.45
2019-04-05T07:53:43.204Z,48.92
2019-04-05T07:56:13.438Z,49.81
2019-04-05T07:58:43.663Z,49.55
2019-04-05T08:01:14.592Z,50.41
2019-04-05T08:03:44.511Z,50.47
2019-04-05T08:06:15.981Z,50.31
2019-04-05T08:09:12.335Z,51.18
2019-04-05T08:11:44.744Z,51.21
2019-04-05T08:14:18.188Z,51.95
2019-04-05T08:16:48.438Z,53.14
2019-04-05T08:19:18.339Z,52.94
2019-04-05T08:21:48.335Z,54.66
2019-04-05T08:24:18.398Z,55.88
2019-04-05T08:26:48.296Z,56.52
2019-04-05T08:31:54.531Z,55.04
2019-04-05T08:34:24.563Z,54.82
2019-04-05T08:36:54.535Z,59.96
2019-04-05T08:39:24.510Z,55.49
2019-04-05T08:41:54.411Z,54.58
2019-04-05T08:44:24.340Z,56.85
2019-04-05T08:46:54.304Z,56.30
2019-04-05T08:49:24.240Z,55.72
2019-04-05T08:51:54.494Z,55.29
2019-04-05T08:54:32.568Z,55.07
2019-04-05T08:56:56.466Z,54.91
2019-04-05T08:59:26.806Z,54.84
2019-04-05T09:01:56.861Z,55.03
2019-04-05T09:04:27.552Z,55.60
2019-04-05T09:06:57.466Z,54.25
2019-04-05T09:09:27.436Z,54.01
2019-04-05T09:11:57.410Z,62.39
2019-04-05T09:14:27.374Z,56.96
2019-04-05T09:16:57.412Z,54.69
2019-04-05T09:19:28.110Z,55.33
2019-04-05T09:21:58.069Z,55.41
2019-04-05T09:24:28.395Z,55.12
2019-04-05T09:26:58.642Z,54.78
2019-04-05T09:29:28.639Z,55.47
2019-04-05T09:31:58.623Z,57.14
2019-04-05T09:34:28.545Z,56.87
2019-04-05T09:36:58.552Z,55.78
2019-04-05T09:39:28.660Z,55.80
2019-04-05T09:41:58.666Z,56.60
2019-04-05T09:44:28.720Z,56.29
2019-04-05T09:46:58.984Z,56.23
2019-04-05T09:49:36.647Z,58.77
2019-04-05T09:52:01.016Z,56.63
2019-04-05T09:54:31.033Z,56.93
2019-04-05T09:57:01.048Z,56.13
2019-04-05T09:59:31.235Z,56.13
2019-04-05T10:02:01.312Z,56.10
2019-04-05T10:04:31.400Z,56.58
2019-04-05T10:07:01.584Z,57.10
2019-04-05T10:09:31.970Z,56.68
2019-04-05T10:12:01.965Z,56.81
2019-04-05T10:14:31.922Z,57.15
2019-04-05T10:17:01.876Z,57.13
2019-04-05T10:19:34.097Z,57.69
2019-04-05T10:22:04.223Z,56.95
2019-04-05T10:24:34.201Z,57.95
2019-04-05T10:27:04.889Z,57.27
2019-04-05T10:29:37.686Z,57.58
2019-04-05T10:32:07.930Z,57.84
2019-04-05T10:34:38.318Z,57.73
2019-04-05T10:37:08.565Z,57.04
2019-04-05T10:39:38.890Z,56.98
2019-04-05T10:42:33.778Z,56.78
2019-04-05T10:45:05.959Z,57.46
2019-04-05T10:47:36.179Z,58.17
2019-04-05T10:50:10.466Z,57.15
2019-04-05T10:52:40.742Z,56.72
2019-04-05T10:55:11.456Z,56.76
2019-04-05T10:57:41.574Z,56.93
2019-04-05T11:00:15.302Z,57.44
2019-04-05T11:02:45.372Z,57.70
2019-04-05T11:05:15.851Z,57.57
2019-04-05T11:07:46.154Z,57.46
2019-04-05T11:10:18.477Z,58.18
2019-04-05T11:12:50.091Z,58.10
2019-04-05T11:15:20.816Z,56.92
2019-04-05T11:17:50.835Z,57.46
2019-04-05T11:20:22.059Z,58.87
2019-04-05T11:22:52.310Z,59.19
2019-04-05T11:25:23.845Z,57.20
2019-04-05T11:27:53.817Z,56.83
2019-04-05T11:30:48.637Z,57.04
2019-04-05T11:33:19.911Z,56.01
2019-04-05T11:35:50.459Z,61.55
2019-04-05T11:38:24.108Z,63.02
2019-04-05T11:40:54.516Z,61.81
2019-04-05T11:43:31.213Z,57.10
2019-04-05T11:46:00.906Z,55.63
2019-04-05T11:48:34.159Z,56.41
2019-04-05T11:51:04.586Z,55.71
2019-04-05T11:53:34.574Z,55.83
2019-04-05T11:56:14.648Z,53.74
2019-04-05T11:58:37.210Z,53.59
2019-04-05T12:01:15.557Z,52.50
2019-04-05T12:03:45.848Z,51.92
2019-04-05T12:06:15.937Z,52.46
2019-04-05T12:08:45.991Z,57.64
2019-04-05T12:11:16.038Z,53.72
2019-04-05T12:13:47.652Z,52.48
2019-04-05T12:16:17.948Z,51.85
2019-04-05T12:18:47.942Z,51.17
2019-04-05T12:21:20.729Z,51.30
2019-04-05T12:23:49.675Z,51.58
2019-04-05T12:26:19.603Z,52.99
2019-04-05T12:28:50.139Z,52.04
2019-04-05T12:31:21.305Z,55.80
2019-04-05T12:33:52.526Z,55.25
2019-04-05T12:36:23.048Z,52.60
2019-04-05T12:38:54.370Z,51.39
2019-04-05T12:41:24.704Z,55.94
2019-04-05T12:43:55.045Z,62.42
2019-04-05T12:46:25.182Z,57.18
2019-04-05T12:48:55.120Z,53.34
2019-04-05T12:51:25.145Z,52.40
2019-04-05T12:53:56.881Z,51.96
2019-04-05T12:56:27.279Z,51.39
2019-04-05T12:58:57.423Z,53.18
2019-04-05T13:01:27.486Z,51.27
2019-04-05T13:03:58.802Z,51.00
2019-04-05T13:06:32.831Z,50.98
2019-04-05T13:09:05.283Z,51.53
2019-04-05T13:11:34.390Z,51.91
2019-04-05T13:14:04.383Z,54.07
2019-04-05T13:16:34.413Z,53.80
2019-04-05T13:19:04.377Z,52.63
2019-04-05T13:21:35.026Z,52.21
2019-04-05T13:24:09.376Z,51.27
2019-04-05T13:26:37.415Z,51.05
2019-04-05T13:29:07.409Z,51.32
2019-04-05T13:31:37.527Z,54.90
2019-04-05T13:34:07.590Z,52.81
2019-04-05T13:36:37.592Z,51.88
2019-04-05T13:39:08.971Z,51.10
2019-04-05T13:41:38.893Z,52.81
2019-04-05T13:44:09.074Z,51.98
2019-04-05T13:46:41.284Z,52.18
2019-04-05T13:49:11.006Z,52.05
2019-04-05T13:51:41.978Z,51.15
2019-04-05T13:54:12.979Z,52.43
2019-04-05T13:56:42.953Z,51.50
2019-04-05T13:59:12.992Z,50.70
2019-04-05T14:01:42.993Z,51.36
2019-04-05T14:04:12.955Z,50.59
2019-04-05T14:06:43.110Z,50.85
2019-04-05T14:09:15.504Z,50.51
2019-04-05T14:11:44.781Z,50.56
2019-04-05T14:14:14.807Z,50.86
2019-04-05T14:16:44.728Z,51.61
2019-04-05T14:19:18.419Z,51.86
2019-04-05T14:21:47.834Z,50.82
2019-04-05T14:24:17.907Z,53.65
2019-04-05T14:26:48.280Z,50.71
2019-04-05T14:29:18.355Z,50.46
2019-04-05T14:31:48.713Z,51.24
2019-04-05T14:34:18.784Z,50.61
2019-04-05T14:36:50.062Z,50.02
2019-04-05T14:39:20.391Z,52.67
2019-04-05T14:41:50.740Z,51.63
2019-04-05T14:44:20.684Z,50.44
2019-04-05T14:46:50.766Z,53.24
2019-04-05T14:49:21.056Z,50.81
2019-04-05T14:51:53.887Z,50.17
2019-04-05T14:54:23.414Z,51.77
2019-04-05T14:56:53.337Z,50.24
2019-04-05T14:59:23.896Z,49.96
2019-04-05T15:01:53.830Z,49.37
2019-04-05T15:04:24.124Z,49.71
2019-04-05T15:06:54.071Z,49.60
2019-04-05T15:09:25.529Z,50.63
2019-04-05T15:11:58.354Z,49.97
2019-04-05T15:14:28.382Z,49.81
2019-04-05T15:16:58.366Z,49.47
2019-04-05T15:19:28.656Z,49.49
2019-04-05T15:22:05.589Z,49.37
2019-04-05T15:24:30.812Z,49.52
2019-04-05T15:27:01.148Z,50.10
2019-04-05T15:29:31.129Z,50.25
2019-04-05T15:32:01.864Z,49.94
2019-04-05T15:34:31.798Z,49.88
2019-04-05T15:37:02.325Z,50.29
2019-04-05T15:39:32.872Z,50.77
2019-04-05T15:42:03.075Z,52.71
2019-04-05T15:44:33.038Z,52.96
2019-04-05T15:47:03.067Z,51.84
2019-04-05T15:49:33.066Z,50.54
2019-04-05T15:52:03.368Z,52.25
2019-04-05T15:54:33.840Z,51.60
2019-04-05T15:57:04.434Z,51.55
2019-04-05T15:59:34.868Z,51.53
2019-04-05T16:02:08.097Z,53.96
2019-04-05T16:04:38.271Z,55.90
2019-04-05T16:07:08.331Z,56.63
2019-04-05T16:09:38.700Z,53.56
2019-04-05T16:12:08.995Z,52.99
2019-04-05T16:14:39.010Z,52.28
2019-04-05T16:17:08.998Z,54.04
2019-04-05T16:19:38.945Z,55.21
2019-04-05T16:22:09.367Z,56.80
2019-04-05T16:24:39.298Z,55.44
2019-04-05T16:27:09.432Z,56.11
2019-04-05T16:29:39.400Z,56.87
2019-04-05T16:32:09.426Z,58.31
2019-04-05T16:34:39.796Z,57.67
2019-04-05T16:37:09.754Z,56.03
2019-04-05T16:39:39.744Z,56.92
2019-04-05T16:42:10.485Z,58.22
2019-04-05T16:44:40.736Z,58.75
2019-04-05T16:47:11.023Z,58.39
2019-04-05T16:49:40.998Z,57.87
2019-04-05T16:52:10.945Z,56.97
2019-04-05T16:54:40.983Z,57.39
2019-04-05T16:57:11.396Z,57.78
2019-04-05T16:59:41.431Z,57.42
2019-04-05T17:02:11.499Z,57.53
2019-04-05T17:04:41.544Z,57.93
2019-04-05T17:07:11.592Z,58.41
2019-04-05T17:09:41.554Z,58.08
2019-04-05T17:12:11.773Z,57.07
2019-04-05T17:14:42.675Z,57.89
2019-04-05T17:17:12.664Z,58.71
2019-04-05T17:19:42.998Z,58.21
2019-04-05T17:22:13.021Z,57.41
2019-04-05T17:24:42.998Z,58.02
2019-04-05T17:27:13.117Z,57.78
2019-04-05T17:29:43.123Z,58.07
2019-04-05T17:32:13.388Z,59.78
2019-04-05T17:34:43.371Z,59.89
2019-04-05T17:37:13.377Z,58.54
2019-04-05T17:39:43.348Z,58.45
2019-04-05T17:42:13.375Z,59.05
2019-04-05T17:44:43.399Z,59.21
2019-04-05T17:47:13.395Z,59.98
2019-04-05T17:49:43.618Z,57.63
2019-04-05T17:52:13.699Z,58.07
2019-04-05T17:54:44.082Z,60.42
2019-04-05T17:57:14.324Z,59.87
2019-04-05T17:59:44.987Z,59.46
2019-04-05T18:02:15.109Z,59.45
2019-04-05T18:04:45.254Z,60.09
2019-04-05T18:07:15.209Z,60.45
2019-04-05T18:09:45.198Z,59.31
2019-04-05T18:12:15.221Z,59.79
2019-04-05T18:14:45.396Z,57.85
2019-04-05T18:17:15.500Z,57.77
2019-04-05T18:19:45.548Z,59.41
2019-04-05T18:22:15.633Z,60.14
2019-04-05T18:24:48.095Z,60.35
2019-04-05T18:27:18.085Z,60.93
2019-04-05T18:29:48.028Z,59.95
2019-04-05T18:32:18.162Z,61.06
2019-04-05T18:34:48.546Z,61.21
2019-04-05T18:37:18.486Z,60.96
2019-04-05T18:39:48.448Z,62.23
2019-04-05T18:42:18.557Z,60.90
2019-04-05T18:44:48.517Z,61.76
2019-04-05T18:47:18.538Z,61.73
2019-04-05T18:49:48.713Z,60.20
2019-04-05T18:52:18.624Z,59.56
2019-04-05T18:54:48.612Z,60.17
2019-04-05T18:57:18.531Z,61.02
2019-04-05T18:59:48.519Z,62.69
2019-04-05T19:02:18.545Z,63.55
2019-04-05T19:04:49.046Z,63.63
2019-04-05T19:07:22.102Z,62.61
2019-04-05T19:09:51.157Z,63.45
2019-04-05T19:12:21.195Z,65.09
2019-04-05T19:14:51.225Z,63.91
2019-04-05T19:17:24.103Z,64.70
2019-04-05T19:19:53.036Z,65.11
2019-04-05T19:22:23.016Z,64.75
2019-04-05T19:24:53.119Z,63.93
2019-04-05T19:27:23.183Z,63.83
2019-04-05T19:29:53.252Z,65.07
2019-04-05T19:50:18.585Z,64.36
2019-04-05T19:52:48.602Z,64.31
2019-04-05T19:55:18.623Z,63.79
2019-04-05T19:57:48.612Z,62.62
2019-04-05T20:00:20.807Z,62.04
2019-04-05T20:02:50.879Z,62.11
2019-04-05T20:05:21.369Z,63.20
2019-04-05T20:07:51.662Z,62.80
2019-04-05T20:10:22.035Z,64.61
2019-04-05T20:12:52.152Z,65.53
2019-04-05T20:15:23.819Z,63.61
2019-04-05T20:17:54.047Z,61.43
2019-04-05T20:20:24.085Z,63.04
2019-04-05T20:22:54.403Z,61.94
2019-04-05T20:25:24.817Z,63.54
2019-04-05T20:27:56.043Z,62.82
2019-04-05T20:30:26.164Z,63.62
2019-04-05T20:32:56.277Z,63.96
2019-04-05T20:35:32.826Z,64.81
2019-04-05T20:38:02.315Z,66.14
2019-04-05T20:40:32.276Z,66.69
2019-04-05T20:43:02.591Z,65.89
2019-04-05T20:45:35.654Z,63.89
2019-04-05T20:48:05.751Z,63.43
2019-04-05T20:50:35.779Z,63.06
2019-04-05T20:53:06.244Z,63.10
2019-04-05T20:55:37.427Z,64.47
2019-04-05T20:58:07.911Z,63.75
2019-04-05T21:00:44.325Z,63.81
2019-04-05T21:03:10.020Z,63.33
2019-04-05T21:05:44.662Z,65.06
2019-04-05T21:08:14.870Z,64.98
2019-04-05T21:10:45.031Z,65.23
2019-04-05T21:13:15.515Z,65.67
2019-04-05T21:16:03.540Z,65.59
2019-04-05T21:18:33.872Z,65.20
2019-04-05T21:21:04.582Z,63.88
2019-04-05T21:23:35.034Z,63.95
2019-04-05T21:26:05.106Z,64.26
2019-04-05T21:28:35.629Z,63.30
2019-04-05T21:31:05.668Z,65.87
2019-04-05T21:33:37.603Z,65.09
2019-04-05T21:36:07.699Z,63.98
2019-04-05T21:38:42.456Z,65.07
2019-04-05T21:41:13.263Z,65.53
2019-04-05T21:43:43.434Z,64.56
2019-04-05T21:46:14.244Z,65.75
2019-04-05T21:48:44.196Z,63.22
2019-04-05T21:51:16.949Z,64.25
2019-04-05T21:53:47.558Z,62.71
2019-04-05T21:56:17.561Z,62.42
2019-04-05T21:58:49.167Z,62.19
2019-04-05T22:01:20.578Z,62.46
2019-04-05T22:03:50.642Z,62.95
2019-04-05T22:06:20.991Z,63.17
2019-04-05T22:08:51.131Z,62.36
2019-04-05T22:11:21.225Z,61.69
2019-04-05T22:13:51.193Z,61.64
2019-04-05T22:16:21.355Z,62.71
2019-04-05T22:18:51.409Z,62.05
2019-04-05T22:21:21.398Z,61.99
2019-04-05T22:23:51.391Z,61.75
2019-04-05T22:26:21.591Z,62.06
2019-04-05T22:28:51.631Z,62.28
2019-04-05T22:31:21.671Z,62.21
2019-04-05T22:33:51.954Z,62.09
2019-04-05T22:36:21.945Z,62.85
2019-04-05T22:38:51.970Z,61.99
2019-04-05T22:41:22.056Z,67.05
2019-04-05T22:43:52.225Z,63.98
2019-04-05T22:46:22.113Z,65.14
2019-04-05T22:48:52.144Z,63.43
2019-04-05T22:51:22.159Z,64.83
2019-04-05T22:53:52.215Z,62.72
2019-04-05T22:56:22.405Z,62.35
2019-04-05T22:58:52.383Z,62.79
2019-04-05T23:01:22.410Z,62.23
2019-04-05T23:03:52.547Z,62.38
2019-04-05T23:06:22.659Z,62.68
2019-04-05T23:08:52.627Z,62.64
2019-04-05T23:11:22.704Z,62.53
2019-04-05T23:13:52.697Z,62.49
2019-04-05T23:16:22.689Z,62.77
2019-04-05T23:18:52.984Z,62.92
2019-04-05T23:21:23.295Z,63.18
2019-04-05T23:23:53.192Z,63.54
2019-04-05T23:26:23.123Z,63.51
2019-04-05T23:28:53.224Z,63.44
2019-04-05T23:31:23.195Z,63.27
2019-04-05T23:33:53.133Z,63.34
2019-04-05T23:36:23.205Z,63.41
2019-04-05T23:38:53.398Z,64.00
2019-04-05T23:41:23.351Z,63.66
2019-04-05T23:43:53.404Z,63.69
2019-04-05T23:46:23.342Z,63.62
2019-04-05T23:48:53.588Z,63.52
2019-04-05T23:51:23.599Z,63.99
2019-04-05T23:53:53.949Z,63.97
2019-04-05T23:56:23.964Z,63.84
2019-04-05T23:58:53.943Z,63.92
